Terminal Aerodrome Forecast
Issued by NWS Grand Forks, ND

Home | Current Version | Previous Version | Graphics & Text | Print | Product List | Glossary On
Versions: 1 2 3 4 5 6 7 8 9 10 11 12 13 14 15 16 17 18
919
FTUS43 KFGF 180859 AAB
TAFFAR
TAF AMD
KFAR 180859Z 1809/1906 01005KT P6SM BKN040
     FM181100 01008KT P6SM -TSRA BKN040CB
     FM181500 VRB04KT P6SM SCT050 BKN120
     FM182000 18006KT P6SM SCT200=

USA.gov is the U.S. government's official web portal to all federal, state and local government web resources and services.